Time;durP1;ratioP1;P1;durP2;ratioP2;P2;SDS_P1;SDS_P2;PMS_P1;PMS_P2;Temp;Humidity;BMP_temperature;BMP_pressure;BME280_temperature;BME280_humidity;BME280_pressure;Samples;Min_cycle;Max_cycle;Signal;HPM_P1;HPM_P2
2022/01/18 00:01:25;;;;;;;47.45;6.93;;;7.30;99.90;;;;;;5031689;28;20050;-82
2022/01/18 00:03:51;;;;;;;49.38;8.57;;;7.30;99.90;;;;;;5021414;28;20120;-82
2022/01/18 00:06:16;;;;;;;45.10;7.35;;;7.20;99.90;;;;;;5010788;28;20053;-82
2022/01/18 00:08:42;;;;;;;47.50;7.78;;;7.10;99.90;;;;;;5009178;28;20259;-81
2022/01/18 00:11:08;;;;;;;48.30;7.38;;;7.10;99.90;;;;;;4996587;28;20222;-81
2022/01/18 00:13:41;;;;;;;55.05;7.85;;;7.00;99.90;;;;;;5007087;28;20532;-81
2022/01/18 00:19:06;;;;;;;39.88;6.07;;;7.00;99.90;;;;;;5011992;28;20056;-81
2022/01/18 00:24:07;;;;;;;44.35;7.40;;;6.90;99.90;;;;;;5026556;28;20037;-81
2022/01/18 00:26:33;;;;;;;42.42;7.97;;;6.90;99.90;;;;;;5032943;28;20087;-81
2022/01/18 00:29:07;;;;;;;50.17;6.72;;;6.90;99.90;;;;;;5003838;28;20398;-81
2022/01/18 00:34:35;;;;;;;38.08;6.43;;;6.90;99.90;;;;;;5003909;28;20054;-81
2022/01/18 00:39:36;;;;;;;57.80;7.65;;;6.80;99.90;;;;;;5008298;28;20519;-81
2022/01/18 00:42:03;;;;;;;48.42;7.47;;;6.80;99.90;;;;;;5000411;28;20065;-81
2022/01/18 00:44:28;;;;;;;46.38;7.93;;;6.80;99.90;;;;;;4988261;28;20085;-81
2022/01/18 00:46:54;;;;;;;45.22;6.45;;;6.80;99.90;;;;;;5004219;28;20057;-81
2022/01/18 00:49:20;;;;;;;43.20;7.55;;;6.80;99.90;;;;;;5036914;28;20124;-81
2022/01/18 00:51:53;;;;;;;53.03;8.10;;;6.70;99.90;;;;;;4998190;28;20279;-80
2022/01/18 00:54:24;;;;;;;45.78;7.28;;;6.70;99.90;;;;;;5004028;28;20578;-81
2022/01/18 00:56:52;;;;;;;51.33;7.38;;;6.80;99.90;;;;;;5002538;28;20119;-81
2022/01/18 00:59:18;;;;;;;47.67;7.35;;;6.80;99.90;;;;;;5006676;28;20499;-80
2022/01/18 01:01:44;;;;;;;52.35;7.93;;;6.90;99.90;;;;;;5032128;28;20365;-81
2022/01/18 01:04:10;;;;;;;61.20;7.85;;;6.90;99.90;;;;;;4989953;28;20042;-80
2022/01/18 01:06:37;;;;;;;44.85;6.90;;;6.90;99.90;;;;;;4985642;28;20076;-81
2022/01/18 01:09:04;;;;;;;54.28;7.97;;;6.90;99.90;;;;;;5008201;28;20041;-80
2022/01/18 01:11:32;;;;;;;45.40;7.82;;;6.90;99.90;;;;;;5002324;28;20045;-81
2022/01/18 01:14:01;;;;;;;50.53;8.63;;;6.90;99.90;;;;;;5002364;28;20567;-81
2022/01/18 01:35:06;;;;;;;53.08;7.93;;;6.80;99.90;;;;;;5005832;28;20041;-81
2022/01/18 01:45:26;;;;;;;53.13;7.97;;;6.80;99.90;;;;;;5010347;28;20134;-81
2022/01/18 01:47:53;;;;;;;60.67;7.93;;;6.80;99.90;;;;;;5022837;28;20046;-81
2022/01/18 01:50:22;;;;;;;51.58;8.23;;;6.70;99.90;;;;;;5010356;28;20523;-81
2022/01/18 01:52:50;;;;;;;47.47;7.53;;;6.70;99.90;;;;;;5012221;28;20037;-81
2022/01/18 01:55:18;;;;;;;45.72;6.97;;;6.70;99.90;;;;;;5033145;28;20132;-81
2022/01/18 01:57:44;;;;;;;58.67;8.52;;;6.60;99.90;;;;;;5013001;28;20151;-81
2022/01/18 02:00:16;;;;;;;50.42;7.82;;;6.70;99.90;;;;;;5010203;28;20116;-81
2022/01/18 02:02:42;;;;;;;47.70;6.63;;;6.60;99.90;;;;;;5010902;28;20061;-80
2022/01/18 02:05:09;;;;;;;48.28;7.03;;;6.60;99.90;;;;;;5008444;28;20045;-81
2022/01/18 02:07:35;;;;;;;40.58;5.70;;;6.60;99.90;;;;;;5007367;28;20116;-81
2022/01/18 02:10:01;;;;;;;55.17;7.35;;;6.60;99.90;;;;;;5005728;28;20120;-81
2022/01/18 02:12:27;;;;;;;37.00;6.78;;;6.60;99.90;;;;;;5006172;28;20069;-80
2022/01/18 02:14:58;;;;;;;40.22;6.93;;;6.60;99.90;;;;;;5008500;28;20044;-81
2022/01/18 02:22:55;;;;;;;43.63;6.38;;;6.70;99.90;;;;;;5010552;28;19917;-80
2022/01/18 02:25:21;;;;;;;36.70;5.63;;;6.60;99.90;;;;;;5016114;28;20052;-81
2022/01/18 02:27:47;;;;;;;48.70;7.53;;;6.70;99.90;;;;;;5012653;28;20765;-81
2022/01/18 02:30:12;;;;;;;49.58;6.45;;;6.70;99.90;;;;;;5037584;28;20033;-81
2022/01/18 02:32:38;;;;;;;43.28;6.95;;;6.70;99.90;;;;;;5033346;28;20439;-81
2022/01/18 02:35:05;;;;;;;39.72;7.45;;;6.70;99.90;;;;;;5013025;28;20459;-81
2022/01/18 02:37:31;;;;;;;45.72;5.75;;;6.70;99.90;;;;;;4998056;28;20048;-81
2022/01/18 02:39:57;;;;;;;28.90;5.38;;;6.70;99.90;;;;;;5013310;28;20041;-81
2022/01/18 02:42:27;;;;;;;43.35;6.45;;;6.70;99.90;;;;;;5012334;28;20069;-81
2022/01/18 02:44:54;;;;;;;42.03;5.95;;;6.70;99.90;;;;;;5015568;28;20331;-80
2022/01/18 02:47:21;;;;;;;35.17;5.38;;;6.70;99.90;;;;;;5005511;28;20463;-81
2022/01/18 02:49:48;;;;;;;37.20;5.70;;;6.70;99.90;;;;;;5007771;28;20502;-81
2022/01/18 02:52:15;;;;;;;37.63;7.07;;;6.80;99.90;;;;;;5010713;28;20205;-80
2022/01/18 02:54:40;;;;;;;35.35;6.35;;;6.70;99.90;;;;;;5038028;28;20037;-80
2022/01/18 02:57:12;;;;;;;32.88;5.55;;;6.70;99.90;;;;;;5007133;28;20037;-80
2022/01/18 03:05:13;;;;;;;35.30;5.10;;;6.80;99.90;;;;;;5013090;28;20057;-81
2022/01/18 03:07:40;;;;;;;34.85;5.10;;;6.70;99.90;;;;;;5010503;28;20399;-81
2022/01/18 03:10:08;;;;;;;23.23;5.32;;;6.70;99.90;;;;;;5008045;28;20033;-81
2022/01/18 03:12:34;;;;;;;35.88;5.50;;;6.70;99.90;;;;;;5012645;28;20063;-81
2022/01/18 03:15:00;;;;;;;36.28;5.43;;;6.70;99.90;;;;;;5014035;28;20044;-81
2022/01/18 03:17:25;;;;;;;33.90;5.07;;;6.70;99.90;;;;;;5011995;28;20564;-81
2022/01/18 03:19:52;;;;;;;34.65;5.93;;;6.70;99.90;;;;;;4992384;28;20037;-81
2022/01/18 03:22:18;;;;;;;36.80;5.75;;;6.70;99.90;;;;;;5016829;28;20515;-81
2022/01/18 03:24:47;;;;;;;33.17;6.00;;;6.60;99.90;;;;;;5006969;28;20062;-81
2022/01/18 03:30:03;;;;;;;36.22;6.05;;;6.70;99.90;;;;;;5034708;28;20133;-81
2022/01/18 03:32:29;;;;;;;27.45;5.93;;;6.70;99.90;;;;;;5011464;28;20089;-81
2022/01/18 03:34:54;;;;;;;26.65;4.90;;;6.70;99.90;;;;;;5011695;28;20028;-81
2022/01/18 03:37:20;;;;;;;23.35;4.70;;;6.70;99.90;;;;;;4993205;28;20419;-80
2022/01/18 03:39:46;;;;;;;24.48;4.68;;;6.70;99.90;;;;;;5036648;28;20040;-80
2022/01/18 03:45:01;;;;;;;26.20;5.57;;;6.70;99.90;;;;;;5004643;28;20044;-81
2022/01/18 03:47:27;;;;;;;18.80;5.00;;;6.70;99.90;;;;;;4991399;28;20045;-80
2022/01/18 03:49:53;;;;;;;27.83;4.88;;;6.70;99.90;;;;;;4989837;28;20057;-81
2022/01/18 03:52:19;;;;;;;25.50;4.80;;;6.70;99.90;;;;;;4985452;28;20043;-81
2022/01/18 03:54:47;;;;;;;28.85;6.45;;;6.70;99.90;;;;;;4990841;28;20042;-81
2022/01/18 03:57:14;;;;;;;24.73;5.07;;;6.70;99.90;;;;;;4990041;28;20192;-81
2022/01/18 03:59:40;;;;;;;21.27;4.97;;;6.70;99.90;;;;;;4989479;28;20041;-80
2022/01/18 04:02:07;;;;;;;26.65;5.93;;;6.70;99.90;;;;;;4989040;28;20034;-81
2022/01/18 04:04:33;;;;;;;28.50;5.20;;;6.70;99.90;;;;;;4987936;28;20046;-81
2022/01/18 04:06:59;;;;;;;25.55;4.40;;;6.70;99.90;;;;;;4987357;28;20045;-80
2022/01/18 04:09:25;;;;;;;21.15;4.20;;;6.70;99.90;;;;;;4991396;28;20049;-81
2022/01/18 04:11:52;;;;;;;21.13;5.38;;;6.80;99.90;;;;;;4990923;28;20511;-81
2022/01/18 04:14:18;;;;;;;25.58;4.10;;;6.80;99.90;;;;;;4981928;28;20033;-81
2022/01/18 04:16:58;;;;;;;29.52;4.40;;;6.80;99.90;;;;;;5016233;28;20025;-81
2022/01/18 04:27:32;;;;;;;20.45;3.67;;;6.70;99.90;;;;;;5005045;28;20151;-81
2022/01/18 04:29:57;;;;;;;25.40;3.97;;;6.70;99.90;;;;;;4999598;28;20049;-81
2022/01/18 04:32:23;;;;;;;22.05;3.75;;;6.80;99.90;;;;;;5000428;28;20053;-81
2022/01/18 04:34:49;;;;;;;21.40;3.88;;;6.80;99.90;;;;;;4989977;28;20041;-81
2022/01/18 04:37:14;;;;;;;20.63;4.03;;;6.70;99.90;;;;;;4975970;28;20045;-81
2022/01/18 04:39:42;;;;;;;24.15;3.70;;;6.80;99.90;;;;;;5013800;28;20072;-81
2022/01/18 04:42:19;;;;;;;17.98;3.60;;;6.80;99.90;;;;;;4988197;28;20496;-81
2022/01/18 04:50:14;;;;;;;21.10;3.77;;;6.70;99.90;;;;;;5027379;28;20049;-81
2022/01/18 04:52:39;;;;;;;18.42;3.58;;;6.80;99.90;;;;;;5010178;28;20044;-81
2022/01/18 04:55:05;;;;;;;16.85;2.95;;;6.70;99.90;;;;;;5032474;28;20067;-81
2022/01/18 05:00:16;;;;;;;16.87;2.80;;;6.70;99.90;;;;;;5033417;28;20045;-81
2022/01/18 05:02:42;;;;;;;19.75;3.83;;;6.70;99.90;;;;;;5007607;28;20460;-81
2022/01/18 05:05:10;;;;;;;17.25;3.13;;;6.70;99.90;;;;;;5008216;28;20498;-81
2022/01/18 05:07:38;;;;;;;19.45;3.50;;;6.70;99.90;;;;;;5007718;28;20067;-80
2022/01/18 05:10:04;;;;;;;13.15;2.20;;;6.70;99.90;;;;;;5006660;28;20053;-81
2022/01/18 05:12:44;;;;;;;14.45;2.85;;;6.70;99.90;;;;;;5011873;28;20045;-81
2022/01/18 05:15:34;;;;;;;22.30;3.80;;;6.70;99.90;;;;;;5006464;28;20393;-81
2022/01/18 05:23:19;;;;;;;19.00;3.30;;;6.70;99.90;;;;;;5012518;28;20156;-80
2022/01/18 05:25:46;;;;;;;15.45;3.00;;;6.70;99.90;;;;;;5007946;28;20583;-81
2022/01/18 05:28:13;;;;;;;15.68;2.38;;;6.70;99.90;;;;;;5011419;28;20041;-81
2022/01/18 05:30:40;;;;;;;18.48;2.67;;;6.70;99.90;;;;;;5008084;28;20456;-81
2022/01/18 05:33:06;;;;;;;13.27;2.35;;;6.70;99.90;;;;;;4989166;28;20534;-81
2022/01/18 05:35:33;;;;;;;15.85;2.88;;;6.70;99.90;;;;;;4995419;28;20157;-81
2022/01/18 05:38:00;;;;;;;11.60;2.35;;;6.70;99.90;;;;;;5011665;28;20040;-81
2022/01/18 05:40:26;;;;;;;11.38;2.60;;;6.70;99.90;;;;;;4992210;28;20211;-81
2022/01/18 05:42:52;;;;;;;15.82;2.78;;;6.70;99.90;;;;;;5008535;28;20052;-81
2022/01/18 05:45:18;;;;;;;17.83;2.72;;;6.70;99.90;;;;;;5035663;28;20072;-81
2022/01/18 05:47:45;;;;;;;12.35;2.65;;;6.70;99.90;;;;;;5009238;28;20689;-81
2022/01/18 05:50:12;;;;;;;12.30;2.67;;;6.80;99.90;;;;;;5009156;28;20786;-81
2022/01/18 05:52:38;;;;;;;14.15;2.65;;;6.80;99.90;;;;;;4994900;28;20033;-81
2022/01/18 05:55:05;;;;;;;14.38;2.60;;;6.70;99.90;;;;;;5025894;28;20049;-81
2022/01/18 05:57:31;;;;;;;11.88;2.63;;;6.80;99.90;;;;;;5012988;28;20330;-81
2022/01/18 06:00:05;;;;;;;17.08;2.85;;;6.70;99.90;;;;;;5021591;28;20126;-81
2022/01/18 06:02:42;;;;;;;8.97;1.93;;;6.80;99.90;;;;;;5007326;28;20284;-81
2022/01/18 06:07:55;;;;;;;17.38;2.20;;;6.80;99.90;;;;;;5012275;28;20041;-81
2022/01/18 06:10:21;;;;;;;12.63;2.72;;;6.80;99.90;;;;;;5016601;28;20044;-81
2022/01/18 06:12:47;;;;;;;14.07;2.63;;;6.80;99.90;;;;;;5013198;28;20095;-81
2022/01/18 06:15:13;;;;;;;11.07;2.25;;;6.80;99.90;;;;;;4996119;28;20041;-80
2022/01/18 06:17:39;;;;;;;16.98;2.67;;;6.80;99.90;;;;;;5013283;28;20136;-81
2022/01/18 06:20:09;;;;;;;12.77;2.30;;;6.80;99.90;;;;;;5011259;28;20171;-81
2022/01/18 06:22:34;;;;;;;11.93;2.05;;;6.80;99.90;;;;;;5019256;28;20124;-81
2022/01/18 06:25:00;;;;;;;17.38;2.70;;;6.70;99.90;;;;;;4996516;28;20468;-81
2022/01/18 06:27:26;;;;;;;15.00;2.70;;;6.80;99.90;;;;;;5019610;28;20043;-81
2022/01/18 06:29:52;;;;;;;13.27;2.72;;;6.70;99.90;;;;;;5010013;28;20602;-81
2022/01/18 06:32:18;;;;;;;10.05;2.17;;;6.70;99.90;;;;;;5006299;28;20720;-81
2022/01/18 06:34:43;;;;;;;13.95;2.40;;;6.70;99.90;;;;;;5005306;28;20057;-81
2022/01/18 06:37:10;;;;;;;19.27;2.85;;;6.70;99.90;;;;;;5018708;28;20136;-81
2022/01/18 06:39:38;;;;;;;17.42;3.13;;;6.70;99.90;;;;;;5012024;28;20041;-81
2022/01/18 06:42:04;;;;;;;13.52;2.60;;;6.70;99.90;;;;;;5018776;28;20053;-81
2022/01/18 06:44:30;;;;;;;21.65;3.25;;;6.70;99.90;;;;;;5011226;28;20056;-81
2022/01/18 06:46:56;;;;;;;20.42;3.58;;;6.60;99.90;;;;;;5004941;28;20728;-81
2022/01/18 06:49:22;;;;;;;19.85;3.90;;;6.60;99.90;;;;;;5015199;28;20347;-81
2022/01/18 06:51:47;;;;;;;15.23;2.88;;;6.60;99.90;;;;;;5006849;28;20044;-81
2022/01/18 06:54:16;;;;;;;19.92;3.33;;;6.60;99.90;;;;;;5018442;28;20413;-81
2022/01/18 06:56:45;;;;;;;14.45;3.20;;;6.60;99.90;;;;;;5012036;28;20044;-81
2022/01/18 06:59:11;;;;;;;17.55;3.20;;;6.60;99.90;;;;;;4995862;28;20086;-80
2022/01/18 07:01:37;;;;;;;18.75;3.47;;;6.60;99.90;;;;;;5008169;28;20044;-81
2022/01/18 07:04:03;;;;;;;13.93;3.00;;;6.60;99.90;;;;;;5017719;28;20045;-81
2022/01/18 07:06:28;;;;;;;11.85;3.15;;;6.60;99.90;;;;;;4983760;28;20049;-81
2022/01/18 07:08:54;;;;;;;19.67;3.40;;;6.60;99.90;;;;;;5010430;28;20574;-80
2022/01/18 07:11:20;;;;;;;15.45;3.13;;;6.60;99.90;;;;;;5016074;28;20045;-81
2022/01/18 07:13:46;;;;;;;13.43;3.15;;;6.50;99.90;;;;;;5010477;28;20107;-81
2022/01/18 07:16:12;;;;;;;19.13;3.78;;;6.60;99.90;;;;;;5010217;28;20529;-81
2022/01/18 07:18:39;;;;;;;22.45;3.40;;;6.50;99.90;;;;;;5010181;28;20151;-81
2022/01/18 07:21:05;;;;;;;13.98;3.70;;;6.60;99.90;;;;;;4993755;28;20444;-81
2022/01/18 07:23:31;;;;;;;11.52;3.00;;;6.60;99.90;;;;;;5010242;28;20040;-81
2022/01/18 07:25:57;;;;;;;16.25;3.40;;;6.60;99.90;;;;;;5035987;28;20357;-81
2022/01/18 07:28:23;;;;;;;15.25;3.25;;;6.60;99.90;;;;;;5010147;28;20099;-80
2022/01/18 07:30:49;;;;;;;18.55;3.20;;;6.60;99.90;;;;;;5036134;28;20050;-81
2022/01/18 07:33:16;;;;;;;15.38;3.17;;;6.60;99.90;;;;;;5025673;28;20049;-80
2022/01/18 07:35:42;;;;;;;14.00;3.15;;;6.50;99.90;;;;;;4996780;28;20452;-81
2022/01/18 07:38:12;;;;;;;17.77;3.90;;;6.50;99.90;;;;;;5016827;28;20109;-80
2022/01/18 07:40:39;;;;;;;16.88;4.13;;;6.50;99.90;;;;;;5032906;28;20120;-81
2022/01/18 07:43:05;;;;;;;17.65;3.95;;;6.50;99.90;;;;;;5009618;28;20053;-81
2022/01/18 07:45:31;;;;;;;17.35;3.42;;;6.50;99.90;;;;;;5010987;28;20056;-81
2022/01/18 07:47:57;;;;;;;17.73;3.83;;;6.50;99.90;;;;;;5005578;28;20044;-81
2022/01/18 07:50:24;;;;;;;16.48;3.88;;;6.50;99.90;;;;;;5009221;28;20025;-81
2022/01/18 07:52:50;;;;;;;18.33;4.25;;;6.50;99.90;;;;;;5004974;28;20038;-81
2022/01/18 07:55:15;;;;;;;20.33;4.40;;;6.50;99.90;;;;;;5003260;28;20094;-80
2022/01/18 07:57:42;;;;;;;18.55;4.55;;;6.50;99.90;;;;;;5007506;28;20037;-80
2022/01/18 08:00:14;;;;;;;14.57;4.20;;;6.50;99.90;;;;;;5009244;28;20041;-81
2022/01/18 08:02:40;;;;;;;16.35;4.20;;;6.50;99.90;;;;;;5014606;28;20040;-80
2022/01/18 08:05:07;;;;;;;18.48;4.20;;;6.40;99.90;;;;;;5006571;28;20454;-81
2022/01/18 08:07:34;;;;;;;14.00;3.83;;;6.40;99.90;;;;;;5008417;28;20041;-81
2022/01/18 08:10:04;;;;;;;23.33;4.78;;;6.40;99.90;;;;;;4991184;28;20048;-80
2022/01/18 08:12:30;;;;;;;13.18;3.90;;;6.40;99.90;;;;;;5019938;28;20030;-81
2022/01/18 08:15:01;;;;;;;20.90;4.38;;;6.40;99.90;;;;;;5013219;28;20477;-80
2022/01/18 08:17:27;;;;;;;14.05;3.47;;;6.40;99.90;;;;;;4996431;28;20098;-81
2022/01/18 08:19:52;;;;;;;12.85;3.72;;;6.40;99.90;;;;;;5002195;28;20392;-81
2022/01/18 08:22:18;;;;;;;16.83;3.90;;;6.50;99.90;;;;;;5006297;28;20071;-80
2022/01/18 08:24:44;;;;;;;13.25;3.70;;;6.50;99.90;;;;;;5011858;28;20198;-81
2022/01/18 08:27:09;;;;;;;11.88;3.45;;;6.50;99.90;;;;;;5006489;28;20127;-81
2022/01/18 08:29:36;;;;;;;16.40;3.92;;;6.50;99.90;;;;;;5017834;28;20068;-80
2022/01/18 08:32:04;;;;;;;14.48;4.20;;;6.50;99.90;;;;;;5031062;28;20392;-80
2022/01/18 08:34:30;;;;;;;20.00;5.68;;;6.50;99.90;;;;;;5002104;28;20042;-81
2022/01/18 08:36:56;;;;;;;20.05;5.72;;;6.50;99.90;;;;;;5009578;28;20105;-81
2022/01/18 08:39:22;;;;;;;23.88;5.18;;;6.60;99.90;;;;;;4992707;28;20053;-81
2022/01/18 08:41:49;;;;;;;14.35;4.20;;;6.60;99.90;;;;;;5010487;28;20053;-80
2022/01/18 08:44:15;;;;;;;13.40;4.30;;;6.60;99.90;;;;;;5017359;28;20049;-81
2022/01/18 08:46:41;;;;;;;14.13;4.50;;;6.70;99.90;;;;;;5006325;28;20056;-81
2022/01/18 08:49:07;;;;;;;12.20;3.80;;;6.70;99.90;;;;;;5019923;28;20041;-80
2022/01/18 08:51:34;;;;;;;11.18;4.68;;;6.70;99.90;;;;;;5008442;28;20034;-81
2022/01/18 08:54:01;;;;;;;12.88;3.88;;;6.70;99.90;;;;;;4994799;28;20041;-80
2022/01/18 08:56:27;;;;;;;14.13;3.45;;;6.70;99.90;;;;;;5011144;28;20611;-81
2022/01/18 08:58:53;;;;;;;10.18;3.72;;;6.80;99.90;;;;;;5007083;28;20162;-81
2022/01/18 09:01:19;;;;;;;14.23;3.50;;;6.70;99.90;;;;;;5011847;28;20431;-81
2022/01/18 09:03:45;;;;;;;14.43;3.80;;;6.80;99.90;;;;;;5007251;28;20083;-81
2022/01/18 09:06:13;;;;;;;11.80;4.20;;;6.90;99.90;;;;;;5003850;28;20049;-81
2022/01/18 09:08:41;;;;;;;13.10;3.53;;;6.90;99.90;;;;;;5008424;28;20045;-81
2022/01/18 09:11:10;;;;;;;12.00;3.60;;;6.90;99.90;;;;;;5000840;28;20099;-81
2022/01/18 09:13:36;;;;;;;16.00;4.20;;;6.90;99.90;;;;;;5006973;28;20118;-81
2022/01/18 09:16:02;;;;;;;11.93;3.88;;;6.90;99.90;;;;;;5007964;28;20156;-81
2022/01/18 09:18:28;;;;;;;11.80;3.35;;;6.90;99.90;;;;;;5004544;28;20077;-81
2022/01/18 09:20:54;;;;;;;13.70;3.42;;;7.00;99.90;;;;;;5008208;28;20091;-80
2022/01/18 09:23:19;;;;;;;12.93;3.38;;;7.10;99.90;;;;;;5006758;28;20052;-81
2022/01/18 09:25:45;;;;;;;16.67;3.42;;;7.10;99.90;;;;;;5006487;28;20044;-81
2022/01/18 09:28:11;;;;;;;9.98;3.40;;;7.10;99.90;;;;;;5034343;28;20059;-81
2022/01/18 09:30:37;;;;;;;12.05;3.75;;;7.20;99.90;;;;;;5005630;28;20560;-81
2022/01/18 09:33:06;;;;;;;9.98;3.28;;;7.20;99.90;;;;;;5016452;28;20056;-81
2022/01/18 09:35:33;;;;;;;16.15;4.25;;;7.20;99.90;;;;;;5029845;28;20046;-81
2022/01/18 09:37:58;;;;;;;9.30;3.85;;;7.30;99.90;;;;;;5019019;28;20033;-81
2022/01/18 09:40:25;;;;;;;10.20;3.47;;;7.30;99.90;;;;;;5007228;28;20096;-81
2022/01/18 09:42:56;;;;;;;10.80;3.90;;;7.30;99.90;;;;;;5010026;28;20060;-81
2022/01/18 09:45:24;;;;;;;16.45;5.18;;;7.30;99.90;;;;;;5015311;28;20037;-80
2022/01/18 09:47:52;;;;;;;12.88;4.28;;;7.40;99.90;;;;;;5011985;28;20045;-81
2022/01/18 09:50:27;;;;;;;17.70;4.20;;;7.40;99.90;;;;;;5010930;28;20040;-80
2022/01/18 09:52:55;;;;;;;14.25;4.45;;;7.40;99.90;;;;;;5006676;28;20060;-81
2022/01/18 09:55:24;;;;;;;16.15;4.80;;;7.50;99.90;;;;;;5007784;28;20080;-81
2022/01/18 09:57:50;;;;;;;12.55;5.15;;;7.50;99.90;;;;;;5036318;28;20365;-81
2022/01/18 10:00:17;;;;;;;16.42;4.72;;;7.40;99.90;;;;;;5008162;28;20502;-81
2022/01/18 10:02:44;;;;;;;16.35;5.13;;;7.40;99.90;;;;;;5011476;28;20360;-81
2022/01/18 10:05:28;;;;;;;14.85;4.82;;;7.40;99.90;;;;;;5011504;28;20095;-80
2022/01/18 10:08:04;;;;;;;13.85;5.15;;;7.60;99.90;;;;;;5005133;28;20033;-81
2022/01/18 10:10:53;;;;;;;20.00;6.22;;;7.60;99.90;;;;;;5009270;28;20500;-80
2022/01/18 10:13:21;;;;;;;13.68;4.88;;;7.50;99.90;;;;;;5006633;28;20045;-81
2022/01/18 10:16:10;;;;;;;17.05;5.75;;;7.60;99.90;;;;;;5004649;28;20334;-81
2022/01/18 10:18:53;;;;;;;16.92;5.07;;;7.60;99.90;;;;;;5009519;28;20369;-81
2022/01/18 10:21:34;;;;;;;15.85;6.00;;;7.60;99.90;;;;;;5008822;28;20087;-81
2022/01/18 10:24:28;;;;;;;14.70;4.78;;;7.50;99.90;;;;;;5002552;28;20472;-81
2022/01/18 10:26:55;;;;;;;16.05;5.22;;;7.50;99.90;;;;;;5009004;28;20045;-81
2022/01/18 10:29:42;;;;;;;14.35;5.28;;;7.40;99.90;;;;;;5011486;28;20048;-81
2022/01/18 10:32:36;;;;;;;15.35;4.82;;;7.50;99.90;;;;;;5007808;28;20465;-81
2022/01/18 10:37:25;;;;;;;16.80;4.55;;;7.70;99.90;;;;;;5009334;28;20044;-81
2022/01/18 10:40:03;;;;;;;13.18;4.88;;;7.70;99.90;;;;;;5020522;28;20109;-81
2022/01/18 10:42:50;;;;;;;16.63;3.95;;;7.70;99.90;;;;;;5002621;28;20521;-81
2022/01/18 10:45:22;;;;;;;15.40;4.40;;;7.60;99.90;;;;;;5017751;28;20120;-81
2022/01/18 10:47:51;;;;;;;15.15;4.47;;;7.60;99.90;;;;;;5002566;28;20037;-80
2022/01/18 10:50:19;;;;;;;14.15;5.18;;;7.70;99.90;;;;;;5002251;28;20033;-81
2022/01/18 10:52:45;;;;;;;16.58;4.78;;;7.70;99.90;;;;;;4998655;28;20069;-81
2022/01/18 10:55:16;;;;;;;15.25;4.97;;;7.80;99.90;;;;;;4982575;28;20068;-81
2022/01/18 10:57:42;;;;;;;15.13;4.25;;;7.70;99.90;;;;;;5016488;28;20038;-81
2022/01/18 11:00:10;;;;;;;15.38;4.15;;;7.60;99.90;;;;;;5001892;28;20096;-81
2022/01/18 11:02:40;;;;;;;11.30;4.07;;;7.60;99.90;;;;;;5003622;28;20342;-80
2022/01/18 11:05:34;;;;;;;12.88;4.10;;;7.70;99.90;;;;;;4984908;28;20083;-81
2022/01/18 11:08:02;;;;;;;17.63;4.72;;;7.70;99.90;;;;;;4983084;28;20061;-81
2022/01/18 11:10:43;;;;;;;16.65;4.40;;;7.70;99.90;;;;;;4998447;28;20151;-82
2022/01/18 11:13:22;;;;;;;15.73;3.88;;;7.90;99.90;;;;;;4988320;28;20182;-81
2022/01/18 11:15:52;;;;;;;11.52;3.67;;;7.90;99.90;;;;;;5000469;28;20041;-82
2022/01/18 11:18:29;;;;;;;11.02;3.42;;;7.90;99.90;;;;;;4984238;28;20572;-82
2022/01/18 11:20:55;;;;;;;15.90;3.60;;;7.90;99.90;;;;;;5001754;28;20427;-81
2022/01/18 11:23:23;;;;;;;9.65;3.00;;;7.90;99.90;;;;;;5000196;28;20072;-81
2022/01/18 11:25:50;;;;;;;10.25;3.45;;;7.90;99.90;;;;;;4985557;28;21002;-82
2022/01/18 11:28:16;;;;;;;10.10;3.13;;;8.00;99.90;;;;;;4997627;28;20042;-81
2022/01/18 11:30:44;;;;;;;13.52;3.72;;;8.10;99.90;;;;;;4982396;28;20265;-82
2022/01/18 11:33:13;;;;;;;11.63;3.22;;;8.20;99.90;;;;;;5001138;28;20042;-81
2022/01/18 11:35:53;;;;;;;14.13;3.58;;;8.00;99.90;;;;;;4984562;28;20045;-82
2022/01/18 11:38:29;;;;;;;9.52;3.20;;;7.90;99.90;;;;;;4999330;28;20124;-82
2022/01/18 11:40:57;;;;;;;8.75;3.25;;;8.00;99.90;;;;;;5016646;28;20121;-81
2022/01/18 11:43:40;;;;;;;10.70;3.30;;;8.00;99.90;;;;;;4999690;28;20061;-82
2022/01/18 11:46:26;;;;;;;12.20;3.47;;;7.90;99.90;;;;;;4999488;28;20541;-82
2022/01/18 11:49:06;;;;;;;13.35;3.33;;;7.90;99.90;;;;;;5001001;28;20768;-81
2022/01/18 11:51:48;;;;;;;14.77;3.30;;;7.90;99.90;;;;;;5016556;28;20544;-81
2022/01/18 11:54:32;;;;;;;16.63;3.17;;;7.80;99.90;;;;;;5001312;28;20398;-81
2022/01/18 11:56:59;;;;;;;12.05;3.47;;;7.70;99.90;;;;;;4978430;28;20069;-82
2022/01/18 11:59:34;;;;;;;11.02;3.30;;;7.80;99.90;;;;;;4998310;28;20056;-82
2022/01/18 12:02:03;;;;;;;13.60;3.00;;;7.80;99.90;;;;;;4999616;28;20252;-82
2022/01/18 12:07:33;;;;;;;9.90;3.28;;;7.80;99.90;;;;;;4997022;28;20408;-81
2022/01/18 12:10:05;;;;;;;11.57;3.10;;;7.80;99.90;;;;;;4974356;28;20112;-82
2022/01/18 12:12:40;;;;;;;8.50;3.40;;;7.80;99.90;;;;;;4985582;28;20037;-82
2022/01/18 12:15:26;;;;;;;12.98;3.20;;;7.80;99.90;;;;;;5001520;28;20041;-82
2022/01/18 12:17:54;;;;;;;9.93;3.50;;;7.70;99.90;;;;;;5002534;28;20085;-82
2022/01/18 12:20:40;;;;;;;7.65;2.35;;;7.80;99.90;;;;;;5019395;28;20034;-81
2022/01/18 12:23:25;;;;;;;11.98;2.50;;;7.70;99.90;;;;;;4977007;28;20450;-81
2022/01/18 12:26:10;;;;;;;10.85;2.92;;;7.70;99.90;;;;;;5016530;28;20049;-82
2022/01/18 12:28:46;;;;;;;11.52;2.67;;;7.70;99.90;;;;;;4998458;28;20077;-81
2022/01/18 12:34:33;;;;;;;12.55;2.97;;;7.70;99.90;;;;;;4999400;28;20517;-81
2022/01/18 12:37:08;;;;;;;7.13;2.30;;;7.70;99.90;;;;;;4997426;28;20048;-81
2022/01/18 12:40:05;;;;;;;10.98;2.47;;;7.70;99.90;;;;;;5017450;28;20104;-82
2022/01/18 12:45:10;;;;;;;7.28;3.30;;;7.60;99.90;;;;;;4990996;28;20100;-82
2022/01/18 12:47:42;;;;;;;13.07;3.67;;;7.70;99.90;;;;;;4973522;28;20053;-82
2022/01/18 12:50:09;;;;;;;11.75;4.05;;;7.50;99.90;;;;;;4958763;28;20099;-81
2022/01/18 12:52:59;;;;;;;11.07;4.18;;;7.50;99.90;;;;;;4954959;28;20046;-82
2022/01/18 12:55:46;;;;;;;12.25;4.03;;;7.50;99.90;;;;;;4976993;28;20321;-82
2022/01/18 12:58:19;;;;;;;12.68;4.70;;;7.60;99.90;;;;;;4958513;28;20041;-81
2022/01/18 13:00:57;;;;;;;13.63;4.63;;;7.50;99.90;;;;;;4973092;28;20052;-82
2022/01/18 13:03:24;;;;;;;15.48;4.13;;;7.60;99.90;;;;;;4977057;28;20034;-81
2022/01/18 13:05:55;;;;;;;11.70;4.40;;;7.50;99.90;;;;;;4974036;28;20046;-81
2022/01/18 13:08:29;;;;;;;12.23;4.30;;;7.50;99.90;;;;;;4975570;28;20037;-82
2022/01/18 13:10:55;;;;;;;15.35;5.05;;;7.50;99.90;;;;;;4964483;28;20038;-82
2022/01/18 13:13:29;;;;;;;11.07;4.82;;;7.60;99.90;;;;;;4970949;28;20069;-81
2022/01/18 13:26:51;;;;;;;16.33;5.13;;;7.80;99.90;;;;;;4970486;28;20512;-82
2022/01/18 13:29:19;;;;;;;15.63;5.30;;;7.80;99.90;;;;;;4961148;28;20240;-81
2022/01/18 13:31:48;;;;;;;14.82;5.38;;;7.90;99.90;;;;;;4976429;28;20402;-81
2022/01/18 13:34:15;;;;;;;14.48;5.65;;;7.90;99.90;;;;;;4978969;28;20125;-81
2022/01/18 13:36:52;;;;;;;15.32;5.40;;;7.90;99.90;;;;;;4988224;28;20321;-82
2022/01/18 13:39:30;;;;;;;18.90;5.60;;;7.70;99.90;;;;;;4961790;28;20042;-81
2022/01/18 13:41:58;;;;;;;17.52;6.97;;;7.70;99.90;;;;;;4983391;28;20139;-82
2022/01/18 13:44:27;;;;;;;14.88;5.80;;;7.70;99.90;;;;;;5015460;28;20164;-81
2022/01/18 13:46:53;;;;;;;19.08;6.25;;;7.70;99.90;;;;;;4999566;28;20407;-82
2022/01/18 13:49:24;;;;;;;15.35;5.43;;;7.70;99.90;;;;;;4986203;28;20137;-82
2022/01/18 13:52:06;;;;;;;16.33;5.35;;;7.60;99.90;;;;;;4983753;28;20057;-82
2022/01/18 13:55:05;;;;;;;15.88;6.55;;;7.60;99.90;;;;;;4998901;28;20080;-81
2022/01/18 13:57:30;;;;;;;15.10;5.38;;;7.40;99.90;;;;;;4948868;28;20099;-82
2022/01/18 13:59:56;;;;;;;16.00;6.13;;;7.40;99.90;;;;;;5003017;28;20451;-82
2022/01/18 14:02:23;;;;;;;17.20;6.20;;;7.40;99.90;;;;;;4989379;28;20061;-81
2022/01/18 14:05:10;;;;;;;18.52;7.03;;;7.30;99.90;;;;;;4999077;28;20046;-82
2022/01/18 14:07:36;;;;;;;18.38;6.57;;;7.30;99.90;;;;;;5000055;28;20134;-82
2022/01/18 14:10:05;;;;;;;17.90;6.32;;;7.20;99.90;;;;;;4986068;28;20466;-82
2022/01/18 14:12:32;;;;;;;18.98;6.40;;;7.20;99.90;;;;;;4987811;28;20068;-82
2022/01/18 14:14:58;;;;;;;18.23;6.20;;;7.20;99.90;;;;;;5002733;28;20041;-82
2022/01/18 14:17:23;;;;;;;18.17;5.95;;;7.10;99.90;;;;;;5003484;28;20052;-82
2022/01/18 14:19:59;;;;;;;18.50;6.07;;;7.20;99.90;;;;;;5003078;28;20045;-82
2022/01/18 14:22:27;;;;;;;16.52;6.03;;;7.10;99.90;;;;;;5003565;28;20052;-82
2022/01/18 14:25:04;;;;;;;15.52;5.53;;;7.30;99.90;;;;;;5002053;28;20041;-82
2022/01/18 14:27:33;;;;;;;17.52;6.13;;;7.30;99.90;;;;;;5001127;28;20049;-81
2022/01/18 14:30:01;;;;;;;17.80;5.68;;;7.40;99.90;;;;;;5003609;28;20379;-81
2022/01/18 14:32:39;;;;;;;19.17;5.95;;;7.50;99.90;;;;;;5001045;28;20509;-81
2022/01/18 14:35:16;;;;;;;18.67;6.15;;;7.70;99.90;;;;;;5003839;28;20079;-82
2022/01/18 14:37:44;;;;;;;15.18;5.47;;;7.80;99.90;;;;;;4974353;28;20054;-82
2022/01/18 14:40:26;;;;;;;12.75;5.78;;;7.60;99.90;;;;;;5004059;28;20488;-82